createdAt,value
2019-03-28T00:00:37.063Z,4.40
2019-03-28T00:01:37.072Z,4.31
2019-03-28T00:02:37.168Z,4.28
2019-03-28T00:03:37.054Z,4.24
2019-03-28T00:04:37.026Z,4.26
2019-03-28T00:05:37.008Z,4.30
2019-03-28T00:06:36.995Z,4.31
2019-03-28T00:07:36.989Z,4.30
2019-03-28T00:08:36.994Z,4.24
2019-03-28T00:09:36.966Z,4.26
2019-03-28T00:10:36.955Z,4.26
2019-03-28T00:11:36.950Z,4.22
2019-03-28T00:12:36.939Z,4.22
2019-03-28T00:13:36.932Z,4.24
2019-03-28T00:14:36.929Z,4.20
2019-03-28T00:15:36.913Z,4.26
2019-03-28T00:16:36.900Z,4.23
2019-03-28T00:17:37.272Z,4.24
2019-03-28T00:18:36.871Z,4.22
2019-03-28T00:19:36.863Z,4.22
2019-03-28T00:20:36.870Z,4.23
2019-03-28T00:21:36.844Z,4.16
2019-03-28T00:22:36.830Z,4.14
2019-03-28T00:23:36.823Z,4.10
2019-03-28T00:24:36.823Z,4.14
2019-03-28T00:25:36.828Z,4.12
2019-03-28T00:26:36.810Z,4.05
2019-03-28T00:27:36.779Z,4.12
2019-03-28T00:28:37.051Z,4.17
2019-03-28T00:29:36.758Z,4.16
2019-03-28T00:30:36.746Z,4.04
2019-03-28T00:31:36.735Z,4.13
2019-03-28T00:32:36.745Z,4.14
2019-03-28T00:33:36.713Z,4.14
2019-03-28T00:34:36.713Z,4.14
2019-03-28T00:35:36.696Z,4.12
2019-03-28T00:36:36.686Z,4.08
2019-03-28T00:37:36.674Z,4.14
2019-03-28T00:38:36.684Z,4.04
2019-03-28T00:39:36.656Z,4.01
2019-03-28T00:40:36.651Z,4.10
2019-03-28T00:41:36.633Z,3.98
2019-03-28T00:42:36.640Z,3.99
2019-03-28T00:43:36.609Z,3.96
2019-03-28T00:44:36.622Z,3.92
2019-03-28T00:45:36.589Z,3.95
2019-03-28T00:46:36.579Z,3.87
2019-03-28T00:47:36.566Z,3.87
2019-03-28T00:48:36.556Z,3.92
2019-03-28T00:49:36.545Z,3.91
2019-03-28T00:50:36.552Z,3.84
2019-03-28T00:51:36.528Z,3.83
2019-03-28T00:52:36.534Z,3.80
2019-03-28T00:53:36.505Z,3.77
2019-03-28T00:54:36.495Z,3.69
2019-03-28T00:55:37.223Z,3.70
2019-03-28T00:56:46.468Z,3.58
2019-03-28T00:57:37.465Z,3.65
2019-03-28T00:58:36.464Z,3.63
2019-03-28T00:59:36.450Z,3.58
2019-03-28T01:00:36.429Z,3.51
2019-03-28T01:01:36.419Z,3.66
2019-03-28T01:02:36.424Z,3.56
2019-03-28T01:03:36.602Z,3.58
2019-03-28T01:04:36.386Z,3.51
2019-03-28T01:05:36.376Z,3.55
2019-03-28T01:06:36.367Z,3.44
2019-03-28T01:07:36.361Z,3.50
2019-03-28T01:08:36.356Z,3.47
2019-03-28T01:09:36.334Z,3.32
2019-03-28T01:10:36.328Z,3.44
2019-03-28T01:11:37.092Z,3.42
2019-03-28T01:12:36.315Z,3.23
2019-03-28T01:13:36.301Z,3.25
2019-03-28T01:14:36.292Z,3.22
2019-03-28T01:15:36.269Z,3.18
2019-03-28T01:16:36.256Z,3.18
2019-03-28T01:17:36.256Z,3.11
2019-03-28T01:18:36.255Z,3.08
2019-03-28T01:19:36.225Z,3.05
2019-03-28T01:20:36.234Z,2.98
2019-03-28T01:21:36.199Z,3.04
2019-03-28T01:22:36.196Z,2.87
2019-03-28T01:23:36.185Z,3.01
2019-03-28T01:24:36.244Z,3.03
2019-03-28T01:25:36.157Z,3.05
2019-03-28T01:26:36.165Z,2.98
2019-03-28T01:27:36.145Z,3.04
2019-03-28T01:28:36.127Z,3.05
2019-03-28T01:29:36.113Z,3.07
2019-03-28T01:30:36.105Z,3.05
2019-03-28T01:31:36.267Z,3.07
2019-03-28T01:32:36.103Z,3.10
2019-03-28T01:33:36.073Z,3.08
2019-03-28T01:34:36.063Z,3.05
2019-03-28T01:35:36.046Z,3.13
2019-03-28T01:36:36.042Z,3.18
2019-03-28T01:37:36.023Z,3.23
2019-03-28T01:38:36.037Z,3.19
2019-03-28T01:39:36.003Z,3.31
2019-03-28T01:40:36.013Z,3.37
2019-03-28T01:41:35.990Z,3.42
2019-03-28T01:42:35.970Z,3.48
2019-03-28T01:43:35.977Z,3.50
2019-03-28T01:44:35.970Z,3.62
2019-03-28T01:45:35.940Z,3.68
2019-03-28T01:46:35.929Z,3.69
2019-03-28T01:47:35.913Z,3.76
2019-03-28T01:48:35.901Z,3.81
2019-03-28T01:49:35.892Z,3.77
2019-03-28T01:50:35.898Z,3.92
2019-03-28T01:51:35.912Z,3.95
2019-03-28T01:52:35.859Z,3.88
2019-03-28T01:53:35.850Z,3.96
2019-03-28T01:54:35.839Z,3.94
2019-03-28T01:55:35.829Z,3.96
2019-03-28T01:56:36.323Z,3.94
2019-03-28T01:57:35.804Z,4.08
2019-03-28T01:58:35.801Z,4.04
2019-03-28T01:59:35.796Z,4.06
2019-03-28T02:00:35.787Z,4.05
2019-03-28T02:01:35.761Z,4.14
2019-03-28T02:02:35.787Z,4.20
2019-03-28T02:03:35.754Z,4.19
2019-03-28T02:04:35.761Z,4.12
2019-03-28T02:05:35.720Z,4.10
2019-03-28T02:06:35.706Z,4.10
2019-03-28T02:07:35.708Z,4.08
2019-03-28T02:08:35.706Z,4.22
2019-03-28T02:09:35.673Z,4.22
2019-03-28T02:10:35.664Z,4.20
2019-03-28T02:11:35.658Z,4.14
2019-03-28T02:12:35.639Z,4.19
2019-03-28T02:13:35.632Z,4.22
2019-03-28T02:14:35.650Z,4.16
2019-03-28T02:15:35.616Z,4.26
2019-03-28T02:16:35.620Z,4.30
2019-03-28T02:17:35.589Z,4.23
2019-03-28T02:18:35.598Z,4.24
2019-03-28T02:19:35.564Z,4.34
2019-03-28T02:20:36.178Z,4.26
2019-03-28T02:21:35.546Z,4.40
2019-03-28T02:22:35.540Z,4.40
2019-03-28T02:23:36.232Z,4.40
2019-03-28T02:24:35.514Z,4.28
2019-03-28T02:25:35.507Z,4.34
2019-03-28T02:26:35.509Z,4.31
2019-03-28T02:27:35.481Z,4.34
2019-03-28T02:28:35.473Z,4.45
2019-03-28T02:29:35.458Z,4.40
2019-03-28T02:30:35.455Z,4.38
2019-03-28T02:31:35.437Z,4.38
2019-03-28T02:32:35.469Z,4.37
2019-03-28T02:33:35.417Z,4.42
2019-03-28T02:34:35.403Z,4.48
2019-03-28T02:35:35.395Z,4.45
2019-03-28T02:36:35.392Z,4.49
2019-03-28T02:37:35.380Z,4.53
2019-03-28T02:38:35.374Z,4.53
2019-03-28T02:39:35.353Z,4.50
2019-03-28T02:40:35.345Z,4.50
2019-03-28T02:41:35.330Z,4.58
2019-03-28T02:42:35.325Z,4.55
2019-03-28T02:43:35.307Z,4.59
2019-03-28T02:44:35.319Z,4.62
2019-03-28T02:45:35.285Z,4.58
2019-03-28T02:46:35.281Z,4.60
2019-03-28T02:47:35.923Z,4.62
2019-03-28T02:48:35.252Z,4.56
2019-03-28T02:49:35.260Z,4.63
2019-03-28T02:50:35.255Z,4.68
2019-03-28T02:51:35.223Z,4.70
2019-03-28T02:52:35.233Z,4.74
2019-03-28T02:53:35.201Z,4.58
2019-03-28T02:54:35.198Z,4.66
2019-03-28T02:55:35.177Z,4.62
2019-03-28T02:56:35.192Z,4.60
2019-03-28T02:57:41.762Z,4.71
2019-03-28T02:58:36.906Z,4.68
2019-03-28T02:59:35.139Z,4.63
2019-03-28T03:00:35.130Z,4.56
2019-03-28T03:01:35.129Z,4.62
2019-03-28T03:02:35.132Z,4.59
2019-03-28T03:03:35.093Z,4.60
2019-03-28T03:04:35.085Z,4.58
2019-03-28T03:05:35.092Z,4.59
2019-03-28T03:06:35.065Z,4.59
2019-03-28T03:07:35.068Z,4.63
2019-03-28T03:08:35.059Z,4.60
2019-03-28T03:09:35.035Z,4.70
2019-03-28T03:10:35.026Z,4.62
2019-03-28T03:11:35.623Z,4.59
2019-03-28T03:12:35.000Z,4.63
2019-03-28T03:13:35.012Z,4.60
2019-03-28T03:14:34.997Z,4.60
2019-03-28T03:15:34.973Z,4.58
2019-03-28T03:16:35.022Z,4.63
2019-03-28T03:17:34.972Z,4.68
2019-03-28T03:18:34.937Z,4.67
2019-03-28T03:19:34.975Z,4.67
2019-03-28T03:20:34.931Z,4.60
2019-03-28T03:21:35.923Z,4.62
2019-03-28T03:22:34.901Z,4.62
2019-03-28T03:23:34.890Z,4.68
2019-03-28T03:24:34.882Z,4.60
2019-03-28T03:25:34.863Z,4.70
2019-03-28T03:26:34.887Z,4.67
2019-03-28T03:27:34.919Z,4.63
2019-03-28T03:28:34.840Z,4.62
2019-03-28T03:29:34.820Z,4.60
2019-03-28T03:30:34.863Z,4.62
2019-03-28T03:31:34.806Z,4.63
2019-03-28T03:32:34.827Z,4.56
2019-03-28T03:33:37.139Z,4.60
2019-03-28T03:34:34.779Z,4.62
2019-03-28T03:35:34.772Z,4.62
2019-03-28T03:36:34.763Z,4.62
2019-03-28T03:37:34.748Z,4.59
2019-03-28T03:38:34.749Z,4.67
2019-03-28T03:39:34.727Z,4.63
2019-03-28T03:40:34.716Z,4.60
2019-03-28T03:41:34.699Z,4.62
2019-03-28T03:42:34.697Z,4.63
2019-03-28T03:43:34.675Z,4.68
2019-03-28T03:44:34.691Z,4.71
2019-03-28T03:45:35.597Z,4.58
2019-03-28T03:46:34.647Z,4.58
2019-03-28T03:47:34.637Z,4.60
2019-03-28T03:48:34.626Z,4.66
2019-03-28T03:49:34.617Z,4.67
2019-03-28T03:50:34.626Z,4.56
2019-03-28T03:51:34.591Z,4.66
2019-03-28T03:52:34.584Z,4.62
2019-03-28T03:53:34.576Z,4.62
2019-03-28T03:54:34.583Z,4.63
2019-03-28T03:55:34.552Z,4.70
2019-03-28T03:56:34.561Z,4.58
2019-03-28T03:57:34.534Z,4.63
2019-03-28T03:58:34.526Z,4.56
2019-03-28T03:59:34.539Z,4.67
2019-03-28T04:00:34.517Z,4.59
2019-03-28T04:01:34.496Z,4.55
2019-03-28T04:02:34.505Z,4.50
2019-03-28T04:03:34.482Z,4.50
2019-03-28T04:04:34.464Z,4.38
2019-03-28T04:05:34.454Z,4.38
2019-03-28T04:06:34.443Z,4.38
2019-03-28T04:07:34.444Z,4.35
2019-03-28T04:08:34.441Z,4.28
2019-03-28T04:09:34.412Z,4.26
2019-03-28T04:10:34.411Z,4.24
2019-03-28T04:11:34.394Z,4.23
2019-03-28T04:12:34.378Z,4.17
2019-03-28T04:13:34.371Z,4.20
2019-03-28T04:14:34.422Z,4.22
2019-03-28T04:15:34.350Z,4.30
2019-03-28T04:16:34.343Z,4.31
2019-03-28T04:17:34.333Z,4.31
2019-03-28T04:18:34.325Z,4.22
2019-03-28T04:19:34.314Z,4.22
2019-03-28T04:20:34.316Z,4.28
2019-03-28T04:21:34.292Z,4.41
2019-03-28T04:22:34.304Z,4.37
2019-03-28T04:23:34.267Z,4.38
2019-03-28T04:24:34.259Z,4.34
2019-03-28T04:25:34.252Z,4.28
2019-03-28T04:26:34.261Z,4.31
2019-03-28T04:27:34.226Z,4.42
2019-03-28T04:28:34.234Z,4.42
2019-03-28T04:29:34.206Z,4.37
2019-03-28T04:30:34.202Z,4.34
2019-03-28T04:31:34.182Z,4.42
2019-03-28T04:32:34.221Z,4.32
2019-03-28T04:33:34.163Z,4.41
2019-03-28T04:34:34.154Z,4.44
2019-03-28T04:35:34.144Z,4.41
2019-03-28T04:36:34.137Z,4.41
2019-03-28T04:37:34.123Z,4.34
2019-03-28T04:38:34.142Z,4.34
2019-03-28T04:39:34.102Z,4.40
2019-03-28T04:40:34.560Z,4.37
2019-03-28T04:41:34.090Z,4.37
2019-03-28T04:42:34.070Z,4.30
2019-03-28T04:43:34.065Z,4.35
2019-03-28T04:44:34.068Z,4.38
2019-03-28T04:45:34.038Z,4.41
2019-03-28T04:46:34.042Z,4.34
2019-03-28T04:47:34.014Z,4.34
2019-03-28T04:48:34.016Z,4.42
2019-03-28T04:49:33.997Z,4.31
2019-03-28T04:50:34.001Z,4.35
2019-03-28T04:51:33.973Z,4.52
2019-03-28T04:52:33.964Z,4.41
2019-03-28T04:53:33.953Z,4.34
2019-03-28T04:54:33.949Z,4.35
2019-03-28T04:55:33.932Z,4.52
2019-03-28T04:56:33.937Z,4.42
2019-03-28T04:57:33.911Z,4.48
2019-03-28T04:58:43.795Z,4.49
2019-03-28T04:59:34.899Z,4.45
2019-03-28T05:00:33.881Z,4.40
2019-03-28T05:01:33.865Z,4.48
2019-03-28T05:02:33.877Z,4.56
2019-03-28T05:03:33.849Z,4.56
2019-03-28T05:04:33.840Z,4.50
2019-03-28T05:05:33.824Z,4.67
2019-03-28T05:06:33.837Z,4.50
2019-03-28T05:07:33.859Z,4.55
2019-03-28T05:08:33.813Z,4.58
2019-03-28T05:09:33.800Z,4.62
2019-03-28T05:10:33.778Z,4.56
2019-03-28T05:11:33.766Z,4.60
2019-03-28T05:12:33.752Z,4.59
2019-03-28T05:13:33.746Z,4.60
2019-03-28T05:14:33.750Z,4.62
2019-03-28T05:15:33.724Z,4.63
2019-03-28T05:16:33.713Z,4.55
2019-03-28T05:17:33.703Z,4.70
2019-03-28T05:18:33.691Z,4.71
2019-03-28T05:19:33.679Z,4.63
2019-03-28T05:20:33.694Z,4.75
2019-03-28T05:21:33.659Z,4.67
2019-03-28T05:22:33.656Z,4.74
2019-03-28T05:23:33.641Z,4.66
2019-03-28T05:24:33.624Z,4.77
2019-03-28T05:25:33.620Z,4.75
2019-03-28T05:26:33.627Z,4.87
2019-03-28T05:27:33.678Z,4.74
2019-03-28T05:28:33.591Z,4.84
2019-03-28T05:29:33.575Z,4.78
2019-03-28T05:30:33.566Z,4.78
2019-03-28T05:31:34.304Z,4.84
2019-03-28T05:32:33.562Z,4.78
2019-03-28T05:33:33.534Z,4.84
2019-03-28T05:34:34.364Z,4.78
2019-03-28T05:35:33.512Z,4.87
2019-03-28T05:36:33.499Z,4.82
2019-03-28T05:37:33.500Z,4.78
2019-03-28T05:38:33.500Z,4.75
2019-03-28T05:39:33.483Z,4.70
2019-03-28T05:40:33.465Z,4.70
2019-03-28T05:41:33.451Z,4.70
2019-03-28T05:42:33.444Z,4.70
2019-03-28T05:43:33.425Z,4.68
2019-03-28T05:44:33.449Z,4.67
2019-03-28T05:45:33.439Z,4.71
2019-03-28T05:46:33.396Z,4.67
2019-03-28T05:47:33.388Z,4.63
2019-03-28T05:48:33.375Z,4.68
2019-03-28T05:49:33.371Z,4.66
2019-03-28T05:50:33.377Z,4.68
2019-03-28T05:51:33.344Z,4.68
2019-03-28T05:52:33.334Z,4.75
2019-03-28T05:53:33.343Z,4.80
2019-03-28T05:54:33.316Z,4.80
2019-03-28T05:55:33.312Z,4.90
2019-03-28T05:56:33.310Z,4.82
2019-03-28T05:57:33.284Z,4.82
2019-03-28T05:58:33.281Z,4.86
2019-03-28T05:59:33.273Z,4.99
2019-03-28T06:00:33.257Z,4.89
2019-03-28T06:01:33.243Z,4.99
2019-03-28T06:02:33.251Z,4.89
2019-03-28T06:03:33.225Z,4.96
2019-03-28T06:04:33.216Z,5.07
2019-03-28T06:05:33.199Z,4.96
2019-03-28T06:06:33.190Z,5.08
2019-03-28T06:07:33.181Z,5.05
2019-03-28T06:08:33.191Z,5.10
2019-03-28T06:09:33.159Z,5.08
2019-03-28T06:10:33.152Z,5.07
2019-03-28T06:11:33.139Z,5.11
2019-03-28T06:12:33.156Z,5.10
2019-03-28T06:13:33.140Z,5.04
2019-03-28T06:14:33.155Z,5.02
2019-03-28T06:15:33.096Z,5.15
2019-03-28T06:16:33.089Z,5.14
2019-03-28T06:17:33.079Z,5.14
2019-03-28T06:18:33.068Z,5.18
2019-03-28T06:19:33.062Z,5.14
2019-03-28T06:20:33.072Z,5.17
2019-03-28T06:21:33.039Z,5.20
2019-03-28T06:22:33.038Z,5.20
2019-03-28T06:23:33.019Z,5.12
2019-03-28T06:24:33.009Z,5.15
2019-03-28T06:25:33.001Z,5.17
2019-03-28T06:26:33.006Z,5.15
2019-03-28T06:27:33.425Z,5.17
2019-03-28T06:28:32.964Z,5.20
2019-03-28T06:29:32.959Z,5.29
2019-03-28T06:30:32.946Z,5.23
2019-03-28T06:31:32.940Z,5.28
2019-03-28T06:32:42.842Z,5.30
2019-03-28T06:33:34.513Z,5.30
2019-03-28T06:34:32.910Z,5.25
2019-03-28T06:35:32.916Z,5.29
2019-03-28T06:36:32.886Z,5.23
2019-03-28T06:37:32.887Z,5.18
2019-03-28T06:38:32.877Z,5.20
2019-03-28T06:39:32.851Z,5.30
2019-03-28T06:40:32.840Z,5.32
2019-03-28T06:41:32.833Z,5.36
2019-03-28T06:42:32.822Z,5.32
2019-03-28T06:43:32.809Z,5.44
2019-03-28T06:44:32.981Z,5.46
2019-03-28T06:45:32.792Z,5.32
2019-03-28T06:46:32.782Z,5.41
2019-03-28T06:47:32.771Z,5.46
2019-03-28T06:48:32.780Z,5.41
2019-03-28T06:49:32.749Z,5.54
2019-03-28T06:50:32.777Z,5.54
2019-03-28T06:51:32.728Z,5.53
2019-03-28T06:52:32.747Z,5.56
2019-03-28T06:53:32.727Z,5.59
2019-03-28T06:54:32.704Z,5.64
2019-03-28T06:55:32.688Z,5.54
2019-03-28T06:56:32.723Z,5.54
2019-03-28T06:57:32.669Z,5.53
2019-03-28T06:58:32.655Z,5.54
2019-03-28T06:59:37.566Z,5.66
2019-03-28T07:00:33.635Z,5.71
2019-03-28T07:01:32.635Z,5.64
2019-03-28T07:02:32.647Z,5.61
2019-03-28T07:03:32.615Z,5.71
2019-03-28T07:04:32.595Z,5.79
2019-03-28T07:05:32.592Z,5.75
2019-03-28T07:06:32.600Z,5.82
2019-03-28T07:07:32.597Z,5.90
2019-03-28T07:08:32.568Z,5.91
2019-03-28T07:09:32.534Z,5.94
2019-03-28T07:10:32.536Z,6.04
2019-03-28T07:11:32.512Z,5.97
2019-03-28T07:12:32.521Z,6.04
2019-03-28T07:13:32.488Z,6.17
2019-03-28T07:14:32.582Z,6.26
2019-03-28T07:15:32.936Z,6.27
2019-03-28T07:16:32.456Z,6.26
2019-03-28T07:17:32.446Z,6.26
2019-03-28T07:18:32.433Z,6.33
2019-03-28T07:19:32.426Z,6.44
2019-03-28T07:20:32.425Z,6.49
2019-03-28T07:21:32.402Z,6.66
2019-03-28T07:22:32.398Z,6.85
2019-03-28T07:23:32.378Z,6.97
2019-03-28T07:24:32.365Z,7.06
2019-03-28T07:25:32.356Z,6.99
2019-03-28T07:26:32.361Z,6.95
2019-03-28T07:27:32.332Z,6.87
2019-03-28T07:28:32.345Z,6.72
2019-03-28T07:29:32.330Z,6.78
2019-03-28T07:30:32.301Z,6.78
2019-03-28T07:31:35.280Z,6.88
2019-03-28T07:32:32.293Z,6.87
2019-03-28T07:33:32.266Z,6.96
2019-03-28T07:34:32.254Z,7.10
2019-03-28T07:35:32.239Z,7.21
2019-03-28T07:36:32.256Z,7.11
2019-03-28T07:37:32.217Z,6.97
2019-03-28T07:38:32.221Z,6.97
2019-03-28T07:39:32.194Z,6.93
2019-03-28T07:40:33.588Z,6.97
2019-03-28T07:41:32.173Z,7.13
2019-03-28T07:42:32.160Z,7.33
2019-03-28T07:43:32.146Z,7.43
2019-03-28T07:44:32.157Z,7.50
2019-03-28T07:45:34.432Z,7.61
2019-03-28T07:46:32.110Z,7.57
2019-03-28T07:47:32.105Z,7.54
2019-03-28T07:48:32.095Z,7.63
2019-03-28T07:49:32.075Z,7.56
2019-03-28T07:50:33.587Z,7.57
2019-03-28T07:51:32.049Z,7.45
2019-03-28T07:52:32.040Z,7.54
2019-03-28T07:53:32.030Z,7.42
2019-03-28T07:54:32.027Z,7.53
2019-03-28T07:55:32.004Z,7.56
2019-03-28T07:56:32.011Z,7.61
2019-03-28T07:57:31.978Z,7.51
2019-03-28T07:58:31.965Z,7.60
2019-03-28T07:59:31.969Z,7.57
2019-03-28T08:00:31.941Z,7.57
2019-03-28T08:01:31.928Z,7.58
2019-03-28T08:02:31.933Z,7.63
2019-03-28T08:03:31.905Z,7.66
2019-03-28T08:04:31.894Z,7.69
2019-03-28T08:05:31.881Z,7.69
2019-03-28T08:06:31.873Z,7.93
2019-03-28T08:07:44.389Z,8.03
2019-03-28T08:08:38.670Z,8.09
2019-03-28T08:09:36.930Z,8.31
2019-03-28T08:10:31.822Z,8.28
2019-03-28T08:11:31.946Z,8.42
2019-03-28T08:12:31.798Z,8.51
2019-03-28T08:13:31.783Z,8.56
2019-03-28T08:14:31.798Z,8.60
2019-03-28T08:15:31.761Z,8.73
2019-03-28T08:16:31.752Z,8.81
2019-03-28T08:17:31.735Z,8.94
2019-03-28T08:18:31.724Z,9.02
2019-03-28T08:19:31.712Z,9.21
2019-03-28T08:20:31.739Z,9.28
2019-03-28T08:21:31.702Z,9.29
2019-03-28T08:22:31.674Z,9.26
2019-03-28T08:23:35.048Z,9.31
2019-03-28T08:24:31.653Z,9.46
2019-03-28T08:25:31.640Z,9.65
2019-03-28T08:26:31.678Z,9.73
2019-03-28T08:27:31.615Z,9.83
2019-03-28T08:28:31.608Z,9.94
2019-03-28T08:29:31.598Z,9.99
2019-03-28T08:30:31.584Z,10.09
2019-03-28T08:31:31.578Z,10.23
2019-03-28T08:32:31.577Z,10.34
2019-03-28T08:33:31.547Z,10.37
2019-03-28T08:34:31.537Z,10.48
2019-03-28T08:35:31.524Z,10.60
2019-03-28T08:36:31.515Z,10.64
2019-03-28T08:37:31.501Z,10.68
2019-03-28T08:38:31.511Z,10.78
2019-03-28T08:39:31.481Z,10.63
2019-03-28T08:40:31.468Z,10.63
2019-03-28T08:41:31.468Z,10.61
2019-03-28T08:42:31.446Z,10.57
2019-03-28T08:43:31.438Z,10.61
2019-03-28T08:44:31.442Z,10.63
2019-03-28T08:45:31.416Z,10.72
2019-03-28T08:46:31.410Z,10.68
2019-03-28T08:47:31.390Z,10.69
2019-03-28T08:48:31.431Z,10.69
2019-03-28T08:49:31.368Z,10.78
2019-03-28T08:50:31.371Z,10.74
2019-03-28T08:51:31.346Z,10.68
2019-03-28T08:52:31.337Z,10.63
2019-03-28T08:53:31.324Z,10.61
2019-03-28T08:54:31.311Z,10.48
2019-03-28T08:55:31.300Z,10.63
2019-03-28T08:56:31.352Z,10.67
2019-03-28T08:57:31.279Z,10.67
2019-03-28T08:58:31.269Z,10.56
2019-03-28T08:59:31.253Z,10.44
2019-03-28T09:00:35.190Z,10.41
2019-03-28T09:01:32.246Z,10.23
2019-03-28T09:02:31.219Z,10.19
2019-03-28T09:03:31.211Z,10.02
2019-03-28T09:04:31.197Z,9.91
2019-03-28T09:05:31.187Z,9.94
2019-03-28T09:06:31.175Z,9.86
2019-03-28T09:07:31.180Z,9.89
2019-03-28T09:08:31.153Z,10.02
2019-03-28T09:09:31.142Z,10.17
2019-03-28T09:10:31.127Z,10.19
2019-03-28T09:11:31.121Z,10.30
2019-03-28T09:12:31.110Z,10.28
2019-03-28T09:13:31.111Z,10.23
2019-03-28T09:14:32.051Z,10.20
2019-03-28T09:15:42.928Z,10.28
2019-03-28T09:16:32.067Z,10.31
2019-03-28T09:17:31.050Z,10.26
2019-03-28T09:18:31.036Z,10.40
2019-03-28T09:19:31.044Z,10.61
2019-03-28T09:20:31.016Z,10.63
2019-03-28T09:21:31.038Z,10.82
2019-03-28T09:22:30.993Z,10.75
2019-03-28T09:23:30.991Z,10.57
2019-03-28T09:24:30.970Z,10.63
2019-03-28T09:25:30.976Z,10.64
2019-03-28T09:26:30.951Z,10.67
2019-03-28T09:27:30.939Z,10.49
2019-03-28T09:28:30.929Z,10.48
2019-03-28T09:29:30.911Z,10.37
2019-03-28T09:30:30.912Z,10.46
2019-03-28T09:31:30.910Z,10.67
2019-03-28T09:32:30.881Z,10.57
2019-03-28T09:33:30.868Z,10.75
2019-03-28T09:34:30.857Z,10.75
2019-03-28T09:35:30.935Z,10.86
2019-03-28T09:36:30.838Z,10.68
2019-03-28T09:37:30.990Z,10.61
2019-03-28T09:38:30.814Z,10.64
2019-03-28T09:39:30.805Z,10.60
2019-03-28T09:40:30.811Z,10.61
2019-03-28T09:41:30.779Z,10.74
2019-03-28T09:42:30.772Z,10.61
2019-03-28T09:43:30.777Z,10.56
2019-03-28T09:44:30.944Z,10.60
2019-03-28T09:45:30.734Z,10.54
2019-03-28T09:46:30.720Z,10.57
2019-03-28T09:47:30.753Z,10.67
2019-03-28T09:48:30.708Z,10.75
2019-03-28T09:49:30.703Z,10.90
2019-03-28T09:50:30.676Z,10.75
2019-03-28T09:51:30.665Z,10.76
2019-03-28T09:52:30.653Z,10.71
2019-03-28T09:53:30.643Z,10.42
2019-03-28T09:54:30.640Z,10.49
2019-03-28T09:55:30.640Z,10.42
2019-03-28T09:56:30.607Z,10.44
2019-03-28T09:57:30.597Z,10.38
2019-03-28T09:58:30.586Z,10.35
2019-03-28T09:59:30.577Z,10.30
2019-03-28T10:00:32.815Z,10.42
2019-03-28T10:01:30.569Z,10.42
2019-03-28T10:02:30.540Z,10.40
2019-03-28T10:03:30.527Z,10.51
2019-03-28T10:04:30.516Z,10.59
2019-03-28T10:05:30.504Z,10.67
2019-03-28T10:06:30.497Z,10.82
2019-03-28T10:07:30.498Z,10.82
2019-03-28T10:08:30.487Z,10.76
2019-03-28T10:09:30.459Z,10.74
2019-03-28T10:10:30.449Z,10.86
2019-03-28T10:11:30.473Z,10.78
2019-03-28T10:12:30.433Z,10.76
2019-03-28T10:13:30.440Z,10.90
2019-03-28T10:14:30.404Z,11.00
2019-03-28T10:15:30.392Z,10.84
2019-03-28T10:16:30.379Z,10.69
2019-03-28T10:17:30.375Z,10.60
2019-03-28T10:18:30.381Z,10.67
2019-03-28T10:19:30.362Z,10.93
2019-03-28T10:20:30.338Z,11.00
2019-03-28T10:21:30.329Z,11.18
2019-03-28T10:22:30.330Z,11.43
2019-03-28T10:23:30.303Z,11.57
2019-03-28T10:24:30.290Z,11.68
2019-03-28T10:25:30.309Z,11.78
2019-03-28T10:26:30.266Z,11.94
2019-03-28T10:27:30.256Z,11.95
2019-03-28T10:28:30.247Z,11.91
2019-03-28T10:29:30.241Z,12.00
2019-03-28T10:30:30.227Z,11.95
2019-03-28T10:31:30.233Z,12.20
2019-03-28T10:32:30.205Z,12.04
2019-03-28T10:33:30.193Z,12.09
2019-03-28T10:34:30.180Z,12.37
2019-03-28T10:35:30.170Z,12.58
2019-03-28T10:36:30.158Z,12.86
2019-03-28T10:37:30.174Z,12.82
2019-03-28T10:38:30.140Z,12.95
2019-03-28T10:39:30.147Z,13.20
2019-03-28T10:40:30.115Z,13.31
2019-03-28T10:41:30.106Z,13.47
2019-03-28T10:42:30.092Z,13.74
2019-03-28T10:43:30.099Z,13.50
2019-03-28T10:44:30.092Z,13.59
2019-03-28T10:45:33.366Z,13.63
2019-03-28T10:46:30.045Z,13.30
2019-03-28T10:47:30.034Z,13.33
2019-03-28T10:48:30.023Z,13.39
2019-03-28T10:49:30.030Z,13.38
2019-03-28T10:50:40.858Z,13.38
2019-03-28T10:51:30.987Z,13.08
2019-03-28T10:52:29.978Z,12.98
2019-03-28T10:53:30.355Z,13.01
2019-03-28T10:54:29.955Z,12.86
2019-03-28T10:55:29.957Z,13.08
2019-03-28T10:56:29.945Z,13.13
2019-03-28T10:57:31.323Z,13.41
2019-03-28T10:58:29.906Z,13.71
2019-03-28T10:59:29.898Z,13.87
2019-03-28T11:00:29.884Z,13.72
2019-03-28T11:01:46.935Z,13.71
2019-03-28T11:02:30.860Z,14.10
2019-03-28T11:03:30.329Z,14.17
2019-03-28T11:04:29.854Z,14.12
2019-03-28T11:05:29.830Z,14.23
2019-03-28T11:06:29.820Z,14.00
2019-03-28T11:07:29.829Z,13.65
2019-03-28T11:08:29.801Z,13.60
2019-03-28T11:09:29.796Z,13.81
2019-03-28T11:10:30.668Z,13.93
2019-03-28T11:11:29.762Z,13.92
2019-03-28T11:12:29.751Z,14.22
2019-03-28T11:13:29.765Z,14.11
2019-03-28T11:14:29.731Z,14.30
2019-03-28T11:15:29.720Z,14.40
2019-03-28T11:16:29.726Z,14.45
2019-03-28T11:17:29.695Z,14.43
2019-03-28T11:18:29.698Z,14.35
2019-03-28T11:19:29.702Z,14.43
2019-03-28T11:20:29.666Z,13.96
2019-03-28T11:21:29.654Z,13.56
2019-03-28T11:22:29.645Z,13.56
2019-03-28T11:23:29.630Z,13.79
2019-03-28T11:24:29.619Z,13.74
2019-03-28T11:25:29.626Z,13.83
2019-03-28T11:26:29.595Z,14.25
2019-03-28T11:27:29.584Z,14.29
2019-03-28T11:28:29.575Z,14.32
2019-03-28T11:29:29.567Z,14.12
2019-03-28T11:30:29.559Z,14.05
2019-03-28T11:31:29.573Z,14.14
2019-03-28T11:32:29.530Z,14.08
2019-03-28T11:33:29.519Z,13.97
2019-03-28T11:34:29.505Z,14.08
2019-03-28T11:35:29.495Z,13.71
2019-03-28T11:36:29.496Z,13.72
2019-03-28T11:37:29.490Z,13.68
2019-03-28T11:38:29.462Z,13.42
2019-03-28T11:39:29.451Z,13.68
2019-03-28T11:40:29.443Z,13.63
2019-03-28T11:41:29.429Z,13.57
2019-03-28T11:42:29.420Z,13.50
2019-03-28T11:43:29.421Z,13.50
2019-03-28T11:44:29.398Z,13.70
2019-03-28T11:45:29.387Z,13.72
2019-03-28T11:46:29.388Z,13.90
2019-03-28T11:47:29.362Z,14.10
2019-03-28T11:48:29.387Z,14.23
2019-03-28T11:49:29.365Z,14.32
2019-03-28T11:50:29.330Z,14.14
2019-03-28T11:51:30.422Z,14.18
2019-03-28T11:52:29.310Z,13.87
2019-03-28T11:53:29.304Z,13.74
2019-03-28T11:54:29.292Z,13.81
2019-03-28T11:55:29.298Z,13.89
2019-03-28T11:56:29.264Z,13.89
2019-03-28T11:57:29.262Z,13.86
2019-03-28T11:58:29.245Z,14.11
2019-03-28T11:59:29.229Z,13.85
2019-03-28T12:00:29.631Z,13.68
2019-03-28T12:01:29.249Z,13.97
2019-03-28T12:02:29.195Z,14.12
2019-03-28T12:03:29.184Z,14.04
2019-03-28T12:04:29.173Z,14.04
2019-03-28T12:05:29.167Z,13.78
2019-03-28T12:06:29.153Z,13.81
2019-03-28T12:07:29.157Z,13.96
2019-03-28T12:08:29.129Z,14.15
2019-03-28T12:09:29.121Z,14.12
2019-03-28T12:10:29.107Z,14.28
2019-03-28T12:11:29.101Z,14.59
2019-03-28T12:12:29.084Z,14.68
2019-03-28T12:13:29.094Z,14.89
2019-03-28T12:14:29.063Z,14.96
2019-03-28T12:15:29.052Z,15.09
2019-03-28T12:16:29.066Z,15.07
2019-03-28T12:17:29.031Z,14.62
2019-03-28T12:18:29.020Z,14.30
2019-03-28T12:19:29.085Z,14.03
2019-03-28T12:20:28.996Z,13.67
2019-03-28T12:21:28.989Z,13.72
2019-03-28T12:22:28.973Z,13.85
2019-03-28T12:23:28.973Z,13.92
2019-03-28T12:24:28.978Z,14.10
2019-03-28T12:25:28.992Z,14.35
2019-03-28T12:26:28.931Z,14.30
2019-03-28T12:27:28.924Z,14.26
2019-03-28T12:28:28.911Z,14.11
2019-03-28T12:29:28.898Z,14.12
2019-03-28T12:30:28.888Z,14.03
2019-03-28T12:31:28.916Z,14.08
2019-03-28T12:32:28.868Z,14.23
2019-03-28T12:33:28.861Z,14.08
2019-03-28T12:34:28.842Z,14.04
2019-03-28T12:35:28.840Z,13.97
2019-03-28T12:36:28.824Z,13.70
2019-03-28T12:37:28.827Z,13.85
2019-03-28T12:38:28.952Z,13.86
2019-03-28T12:39:28.795Z,13.70
2019-03-28T12:40:28.778Z,13.62
2019-03-28T12:41:28.782Z,13.83
2019-03-28T12:42:28.760Z,14.00
2019-03-28T12:43:28.759Z,14.07
2019-03-28T12:44:28.732Z,13.97
2019-03-28T12:45:28.721Z,13.99
2019-03-28T12:46:28.709Z,13.95
2019-03-28T12:47:41.602Z,14.12
2019-03-28T12:48:29.709Z,14.26
2019-03-28T12:49:28.676Z,14.33
2019-03-28T12:50:28.667Z,14.51
2019-03-28T12:51:28.655Z,14.18
2019-03-28T12:52:29.918Z,13.62
2019-03-28T12:53:28.634Z,13.65
2019-03-28T12:54:28.799Z,13.83
2019-03-28T12:55:28.608Z,13.86
2019-03-28T12:56:28.608Z,13.96
2019-03-28T12:57:28.587Z,13.93
2019-03-28T12:58:28.585Z,13.89
2019-03-28T12:59:28.566Z,13.46
2019-03-28T13:00:28.571Z,13.30
2019-03-28T13:01:28.544Z,13.20
2019-03-28T13:02:31.761Z,13.19
2019-03-28T13:03:34.725Z,13.18
2019-03-28T13:04:29.506Z,13.19
2019-03-28T13:05:28.499Z,13.18
2019-03-28T13:06:28.500Z,13.08
2019-03-28T13:07:28.473Z,13.04
2019-03-28T13:08:28.461Z,12.91
2019-03-28T13:09:28.452Z,12.98